Time,TemperatureF,DewpointF,PressureIn,WindDirection,WindDirectionDegrees,WindSpeedMPH,WindSpeedGustMPH,Humidity,HourlyPrecipIn,Conditions,Clouds,dailyrainin,SoftwareType,DateUTC
2013-05-25 00:02:00,47.5,41.4,30.18,West,270,0.0,2.0,79,0.00,,,0.01,meteohub,2013-05-25 04:02:00,
2013-05-25 00:06:00,47.5,41.4,30.18,West,270,1.0,2.0,79,0.00,,,0.00,meteohub,2013-05-25 04:06:00,
2013-05-25 00:07:00,47.5,41.4,30.18,West,270,1.0,2.0,79,0.00,,,0.00,meteohub,2013-05-25 04:07:00,
2013-05-25 00:12:00,47.3,41.7,30.18,West,270,0.0,1.0,81,0.00,,,0.00,meteohub,2013-05-25 04:12:00,
2013-05-25 00:17:00,47.3,41.7,30.18,West,270,1.0,1.0,81,0.00,,,0.00,meteohub,2013-05-25 04:17:00,
2013-05-25 00:22:00,46.9,41.7,30.18,West,270,1.0,1.0,82,0.00,,,0.00,meteohub,2013-05-25 04:22:00,
2013-05-25 00:27:00,46.4,41.2,30.18,West,270,1.0,1.0,82,0.00,,,0.00,meteohub,2013-05-25 04:27:00,
2013-05-25 00:32:00,46.0,40.8,30.18,West,270,0.0,1.0,82,0.00,,,0.00,meteohub,2013-05-25 04:32:00,
2013-05-25 00:37:00,46.0,41.2,30.18,West,270,0.0,1.0,83,0.00,,,0.00,meteohub,2013-05-25 04:37:00,
2013-05-25 00:42:00,45.7,41.4,30.18,West,270,0.0,1.0,85,0.00,,,0.00,meteohub,2013-05-25 04:42:00,
2013-05-25 00:47:00,45.3,41.0,30.18,West,270,0.0,0.0,85,0.00,,,0.00,meteohub,2013-05-25 04:47:00,
2013-05-25 00:52:00,45.1,40.8,30.18,West,270,0.0,0.0,85,0.00,,,0.00,meteohub,2013-05-25 04:52:00,
2013-05-25 00:57:00,44.6,40.5,30.18,West,270,0.0,0.0,85,0.00,,,0.00,meteohub,2013-05-25 04:57:00,
2013-05-25 01:02:00,44.4,40.3,30.18,West,270,0.0,0.0,85,0.00,,,0.00,meteohub,2013-05-25 05:02:00,
2013-05-25 01:07:00,44.2,40.1,30.18,West,270,0.0,0.0,85,0.00,,,0.00,meteohub,2013-05-25 05:07:00,
2013-05-25 01:12:00,44.1,39.9,30.18,West,270,0.0,0.0,85,0.00,,,0.00,meteohub,2013-05-25 05:12:00,
2013-05-25 01:17:00,43.7,39.7,30.18,West,270,0.0,0.0,86,0.00,,,0.00,meteohub,2013-05-25 05:17:00,
2013-05-25 01:22:00,43.5,39.6,30.18,West,270,0.0,0.0,86,0.00,,,0.00,meteohub,2013-05-25 05:22:00,
2013-05-25 01:27:00,43.3,39.7,30.17,West,270,0.0,0.0,87,0.00,,,0.00,meteohub,2013-05-25 05:27:00,
2013-05-25 01:32:00,43.0,39.4,30.18,West,270,0.0,0.0,87,0.00,,,0.00,meteohub,2013-05-25 05:32:00,
2013-05-25 01:37:00,43.2,39.6,30.18,West,270,0.0,0.0,87,0.00,,,0.00,meteohub,2013-05-25 05:37:00,
2013-05-25 01:42:00,42.6,39.4,30.18,West,270,0.0,0.0,88,0.00,,,0.00,meteohub,2013-05-25 05:42:00,
2013-05-25 01:47:00,42.4,39.2,30.19,West,270,0.0,0.0,88,0.00,,,0.00,meteohub,2013-05-25 05:47:00,
2013-05-25 01:52:00,42.3,39.0,30.18,West,270,0.0,0.0,88,0.00,,,0.00,meteohub,2013-05-25 05:52:00,
2013-05-25 01:57:00,42.3,39.0,30.18,West,270,0.0,0.0,88,0.00,,,0.00,meteohub,2013-05-25 05:57:00,
2013-05-25 02:02:00,42.1,38.8,30.18,West,270,0.0,0.0,88,0.00,,,0.00,meteohub,2013-05-25 06:02:00,
2013-05-25 02:07:00,42.1,38.8,30.18,West,270,0.0,0.0,88,0.00,,,0.00,meteohub,2013-05-25 06:07:00,
2013-05-25 02:12:00,42.1,39.0,30.19,West,270,0.0,0.0,89,0.00,,,0.00,meteohub,2013-05-25 06:12:00,
2013-05-25 02:17:00,42.1,39.0,30.19,West,270,0.0,0.0,89,0.00,,,0.00,meteohub,2013-05-25 06:17:00,
2013-05-25 02:22:00,42.1,39.0,30.19,West,270,0.0,0.0,89,0.00,,,0.00,meteohub,2013-05-25 06:22:00,
2013-05-25 02:27:00,41.9,39.2,30.18,West,270,0.0,0.0,90,0.00,,,0.00,meteohub,2013-05-25 06:27:00,
2013-05-25 02:32:00,41.9,39.2,30.19,West,270,0.0,0.0,90,0.00,,,0.00,meteohub,2013-05-25 06:32:00,
2013-05-25 02:37:00,41.5,38.8,30.19,West,270,0.0,0.0,90,0.00,,,0.00,meteohub,2013-05-25 06:37:00,
2013-05-25 02:42:00,41.5,38.8,30.19,West,270,0.0,0.0,90,0.00,,,0.00,meteohub,2013-05-25 06:42:00,
2013-05-25 02:47:00,41.4,38.7,30.19,West,270,0.0,0.0,90,0.00,,,0.00,meteohub,2013-05-25 06:47:00,
2013-05-25 02:52:00,41.2,38.5,30.19,West,270,0.0,0.0,90,0.00,,,0.00,meteohub,2013-05-25 06:52:00,
2013-05-25 02:57:00,41.0,38.3,30.19,West,270,0.0,0.0,90,0.00,,,0.00,meteohub,2013-05-25 06:57:00,
2013-05-25 03:02:00,41.0,38.3,30.19,West,270,0.0,0.0,90,0.00,,,0.00,meteohub,2013-05-25 07:02:00,
2013-05-25 03:07:00,41.0,38.3,30.19,West,270,0.0,0.0,90,0.00,,,0.00,meteohub,2013-05-25 07:07:00,
2013-05-25 03:12:00,40.8,38.5,30.19,West,270,0.0,0.0,91,0.00,,,0.00,meteohub,2013-05-25 07:12:00,
2013-05-25 03:17:00,40.8,38.5,30.19,West,270,0.0,0.0,91,0.00,,,0.00,meteohub,2013-05-25 07:17:00,
2013-05-25 03:22:00,40.8,38.5,30.20,West,270,0.0,0.0,91,0.00,,,0.00,meteohub,2013-05-25 07:22:00,
2013-05-25 03:27:00,40.6,38.3,30.20,West,270,0.0,0.0,91,0.00,,,0.00,meteohub,2013-05-25 07:27:00,
2013-05-25 03:32:00,40.8,38.5,30.20,West,270,0.0,0.0,91,0.00,,,0.00,meteohub,2013-05-25 07:32:00,
2013-05-25 03:37:00,40.8,38.7,30.20,West,270,0.0,0.0,92,0.00,,,0.00,meteohub,2013-05-25 07:37:00,
2013-05-25 03:42:00,40.8,38.7,30.19,West,270,0.0,0.0,92,0.00,,,0.00,meteohub,2013-05-25 07:42:00,
2013-05-25 03:47:00,40.8,38.7,30.19,West,270,0.0,0.0,92,0.00,,,0.00,meteohub,2013-05-25 07:47:00,
2013-05-25 03:52:00,40.8,38.7,30.19,West,270,0.0,0.0,92,0.00,,,0.00,meteohub,2013-05-25 07:52:00,
2013-05-25 03:57:00,40.8,38.7,30.19,West,270,0.0,0.0,92,0.00,,,0.00,meteohub,2013-05-25 07:57:00,
2013-05-25 04:05:00,40.6,38.5,30.19,West,270,0.0,0.0,92,0.00,,,0.00,meteohub,2013-05-25 08:05:00,
2013-05-25 04:11:00,40.5,38.3,30.19,West,270,0.0,0.0,92,0.00,,,0.00,meteohub,2013-05-25 08:11:00,
2013-05-25 04:17:00,40.5,38.3,30.19,West,270,0.0,0.0,92,0.00,,,0.00,meteohub,2013-05-25 08:17:00,
2013-05-25 04:22:00,40.5,38.3,30.19,West,270,0.0,0.0,92,0.00,,,0.00,meteohub,2013-05-25 08:22:00,
2013-05-25 04:27:00,40.3,38.1,30.20,West,270,0.0,0.0,92,0.00,,,0.00,meteohub,2013-05-25 08:27:00,
2013-05-25 04:32:00,40.3,38.1,30.20,West,270,0.0,0.0,92,0.00,,,0.00,meteohub,2013-05-25 08:32:00,
2013-05-25 04:37:00,40.5,38.7,30.20,West,270,0.0,0.0,93,0.00,,,0.00,meteohub,2013-05-25 08:37:00,
2013-05-25 04:42:00,40.3,38.5,30.20,West,270,0.0,0.0,93,0.00,,,0.00,meteohub,2013-05-25 08:42:00,
2013-05-25 04:47:00,40.3,38.5,30.20,West,270,0.0,0.0,93,0.00,,,0.00,meteohub,2013-05-25 08:47:00,
2013-05-25 04:52:00,40.3,38.5,30.21,West,270,0.0,0.0,93,0.00,,,0.00,meteohub,2013-05-25 08:52:00,
2013-05-25 04:57:00,40.1,38.3,30.20,West,270,0.0,0.0,93,0.00,,,0.00,meteohub,2013-05-25 08:57:00,
2013-05-25 05:02:00,40.1,38.3,30.21,West,270,0.0,0.0,93,0.00,,,0.00,meteohub,2013-05-25 09:02:00,
2013-05-25 05:07:00,39.9,38.1,30.21,West,270,0.0,0.0,93,0.00,,,0.00,meteohub,2013-05-25 09:07:00,
2013-05-25 05:12:00,39.7,37.9,30.21,West,270,0.0,0.0,93,0.00,,,0.00,meteohub,2013-05-25 09:12:00,
2013-05-25 05:17:00,39.7,37.9,30.22,West,270,0.0,0.0,93,0.00,,,0.00,meteohub,2013-05-25 09:17:00,
2013-05-25 05:22:00,39.7,37.9,30.22,West,270,0.0,0.0,93,0.00,,,0.00,meteohub,2013-05-25 09:22:00,
2013-05-25 05:27:00,39.6,37.8,30.21,West,270,0.0,0.0,93,0.00,,,0.00,meteohub,2013-05-25 09:27:00,
2013-05-25 05:32:00,39.6,37.8,30.22,West,270,0.0,0.0,93,0.00,,,0.00,meteohub,2013-05-25 09:32:00,
2013-05-25 05:37:00,39.6,37.8,30.21,West,270,0.0,0.0,93,0.00,,,0.00,meteohub,2013-05-25 09:37:00,
2013-05-25 05:42:00,39.6,37.8,30.22,West,270,0.0,0.0,93,0.00,,,0.00,meteohub,2013-05-25 09:42:00,
2013-05-25 05:47:00,39.7,38.1,30.22,West,270,0.0,0.0,94,0.00,,,0.00,meteohub,2013-05-25 09:47:00,
2013-05-25 05:52:00,39.6,37.9,30.22,West,270,0.0,0.0,94,0.00,,,0.00,meteohub,2013-05-25 09:52:00,
2013-05-25 05:57:00,39.4,37.8,30.23,West,270,0.0,0.0,94,0.00,,,0.00,meteohub,2013-05-25 09:57:00,
2013-05-25 06:02:00,39.4,37.8,30.23,West,270,0.0,0.0,94,0.00,,,0.00,meteohub,2013-05-25 10:02:00,
2013-05-25 06:07:00,39.4,37.8,30.23,West,270,0.0,0.0,94,0.00,,,0.00,meteohub,2013-05-25 10:07:00,
2013-05-25 06:12:00,39.4,37.8,30.22,West,270,0.0,0.0,94,0.00,,,0.00,meteohub,2013-05-25 10:12:00,
2013-05-25 06:17:00,39.4,37.8,30.22,West,270,0.0,0.0,94,0.00,,,0.00,meteohub,2013-05-25 10:17:00,
2013-05-25 06:22:00,39.4,37.8,30.22,West,270,0.0,0.0,94,0.00,,,0.00,meteohub,2013-05-25 10:22:00,
2013-05-25 06:27:00,39.7,38.1,30.23,West,270,0.0,0.0,94,0.00,,,0.00,meteohub,2013-05-25 10:27:00,
2013-05-25 06:32:00,39.9,38.3,30.23,West,270,0.0,0.0,94,0.00,,,0.00,meteohub,2013-05-25 10:32:00,
2013-05-25 06:37:00,40.3,39.0,30.23,West,270,0.0,0.0,95,0.00,,,0.00,meteohub,2013-05-25 10:37:00,
2013-05-25 06:42:00,40.3,39.0,30.23,West,270,0.0,0.0,95,0.00,,,0.00,meteohub,2013-05-25 10:42:00,
2013-05-25 06:47:00,40.3,39.0,30.23,West,270,0.0,0.0,95,0.00,,,0.00,meteohub,2013-05-25 10:47:00,
2013-05-25 06:52:00,40.5,39.2,30.23,West,270,0.0,0.0,95,0.00,,,0.00,meteohub,2013-05-25 10:52:00,
2013-05-25 06:57:00,40.5,39.2,30.24,West,270,0.0,0.0,95,0.00,,,0.00,meteohub,2013-05-25 10:57:00,
2013-05-25 07:02:00,40.5,39.2,30.23,West,270,0.0,0.0,95,0.00,,,0.00,meteohub,2013-05-25 11:02:00,
2013-05-25 07:07:00,40.6,39.4,30.23,West,270,0.0,0.0,95,0.00,,,0.00,meteohub,2013-05-25 11:07:00,
2013-05-25 07:12:00,41.0,39.7,30.23,West,270,0.0,0.0,95,0.00,,,0.00,meteohub,2013-05-25 11:12:00,
2013-05-25 07:17:00,41.4,40.1,30.24,West,270,0.0,0.0,95,0.00,,,0.00,meteohub,2013-05-25 11:17:00,
2013-05-25 07:22:00,41.7,40.5,30.24,West,270,0.0,0.0,95,0.00,,,0.00,meteohub,2013-05-25 11:22:00,
2013-05-25 07:27:00,41.9,40.6,30.24,West,270,0.0,0.0,95,0.00,,,0.00,meteohub,2013-05-25 11:27:00,
2013-05-25 07:32:00,42.3,41.0,30.24,West,270,0.0,0.0,95,0.00,,,0.00,meteohub,2013-05-25 11:32:00,
2013-05-25 07:37:00,42.8,41.7,30.24,South,180,2.0,0.0,96,0.00,,,0.00,meteohub,2013-05-25 11:37:00,
2013-05-25 07:42:00,43.2,42.1,30.23,South,180,2.0,2.0,96,0.00,,,0.00,meteohub,2013-05-25 11:42:00,
2013-05-25 07:47:00,43.5,42.4,30.24,East,90,2.0,2.0,96,0.00,,,0.00,meteohub,2013-05-25 11:47:00,
2013-05-25 07:52:00,44.4,43.3,30.24,SW,225,3.0,3.0,96,0.00,,,0.00,meteohub,2013-05-25 11:52:00,
2013-05-25 07:57:00,45.3,44.1,30.23,SE,135,2.0,4.0,95,0.00,,,0.00,meteohub,2013-05-25 11:57:00,
2013-05-25 08:03:00,46.0,43.9,30.24,NW,315,1.0,4.0,92,0.00,,,0.00,meteohub,2013-05-25 12:03:00,
2013-05-25 08:09:00,46.9,44.2,30.24,SW,225,2.0,4.0,90,0.00,,,0.00,meteohub,2013-05-25 12:09:00,
2013-05-25 08:15:00,47.3,43.7,30.24,SE,135,2.0,4.0,87,0.00,,,0.00,meteohub,2013-05-25 12:15:00,
2013-05-25 08:21:00,47.7,42.8,30.25,South,180,2.0,4.0,83,0.00,,,0.00,meteohub,2013-05-25 12:21:00,
2013-05-25 08:27:00,48.0,42.4,30.25,NW,315,2.0,4.0,81,0.00,,,0.00,meteohub,2013-05-25 12:27:00,
2013-05-25 08:32:00,48.4,42.3,30.25,East,90,1.0,4.0,79,0.00,,,0.00,meteohub,2013-05-25 12:32:00,
2013-05-25 08:37:00,48.7,41.5,30.25,NE,45,2.0,2.0,76,0.00,,,0.00,meteohub,2013-05-25 12:37:00,
2013-05-25 08:42:00,49.3,42.1,30.25,East,90,2.0,3.0,76,0.00,,,0.00,meteohub,2013-05-25 12:42:00,
2013-05-25 08:47:00,49.3,42.4,30.25,East,90,1.0,3.0,77,0.00,,,0.00,meteohub,2013-05-25 12:47:00,
2013-05-25 08:52:00,49.8,42.3,30.25,NW,315,2.0,3.0,75,0.00,,,0.00,meteohub,2013-05-25 12:52:00,
2013-05-25 08:57:00,50.2,41.2,30.25,NW,315,2.0,3.0,71,0.00,,,0.00,meteohub,2013-05-25 12:57:00,
2013-05-25 09:02:00,50.5,41.2,30.25,NE,45,2.0,2.0,70,0.00,,,0.00,meteohub,2013-05-25 13:02:00,
2013-05-25 09:07:00,51.1,41.7,30.26,East,90,2.0,3.0,70,0.00,,,0.00,meteohub,2013-05-25 13:07:00,
2013-05-25 09:12:00,51.4,42.4,30.26,East,90,2.0,3.0,71,0.00,,,0.00,meteohub,2013-05-25 13:12:00,
2013-05-25 09:17:00,52.2,41.2,30.26,North,0,2.0,3.0,66,0.00,,,0.00,meteohub,2013-05-25 13:17:00,
2013-05-25 09:22:00,53.1,41.5,30.26,West,270,2.0,4.0,65,0.00,,,0.00,meteohub,2013-05-25 13:22:00,
2013-05-25 09:27:00,53.8,41.5,30.25,East,90,3.0,4.0,63,0.00,,,0.00,meteohub,2013-05-25 13:27:00,
2013-05-25 09:32:00,54.9,42.1,30.26,North,0,2.0,4.0,62,0.00,,,0.00,meteohub,2013-05-25 13:32:00,
2013-05-25 09:37:00,55.6,39.7,30.25,South,180,4.0,4.0,55,0.00,,,0.00,meteohub,2013-05-25 13:37:00,
2013-05-25 09:42:00,56.1,39.7,30.25,North,0,4.0,12.0,54,0.00,,,0.00,meteohub,2013-05-25 13:42:00,
2013-05-25 09:47:00,56.7,39.7,30.25,West,270,3.0,12.0,53,0.00,,,0.00,meteohub,2013-05-25 13:47:00,
2013-05-25 09:52:00,57.6,40.6,30.26,NW,315,4.0,12.0,53,0.00,,,0.00,meteohub,2013-05-25 13:52:00,
2013-05-25 09:57:00,58.3,40.3,30.25,NNW,338,4.0,5.0,51,0.00,,,0.00,meteohub,2013-05-25 13:57:00,
2013-05-25 10:02:00,57.9,38.3,30.25,North,0,3.0,4.0,48,0.00,,,0.00,meteohub,2013-05-25 14:02:00,
2013-05-25 10:07:00,58.3,39.7,30.25,NE,45,1.0,6.0,50,0.00,,,0.00,meteohub,2013-05-25 14:07:00,
2013-05-25 10:12:00,59.0,39.9,30.25,SE,135,2.0,6.0,49,0.00,,,0.00,meteohub,2013-05-25 14:12:00,
2013-05-25 10:17:00,59.7,41.5,30.25,North,0,4.0,6.0,51,0.00,,,0.00,meteohub,2013-05-25 14:17:00,
2013-05-25 10:22:00,60.1,40.8,30.25,East,90,2.0,6.0,49,0.00,,,0.00,meteohub,2013-05-25 14:22:00,
2013-05-25 10:27:00,60.6,39.2,30.25,North,0,4.0,6.0,45,0.00,,,0.00,meteohub,2013-05-25 14:27:00,
2013-05-25 10:32:00,60.4,37.8,30.25,NE,45,4.0,7.0,43,0.00,,,0.00,meteohub,2013-05-25 14:32:00,
2013-05-25 10:37:00,60.6,36.1,30.25,North,0,2.0,7.0,40,0.00,,,0.00,meteohub,2013-05-25 14:37:00,
2013-05-25 10:42:00,61.2,36.7,30.25,WSW,248,4.0,8.0,40,0.00,,,0.00,meteohub,2013-05-25 14:42:00,
2013-05-25 10:47:00,61.3,39.2,30.25,SW,225,2.0,8.0,44,0.00,,,0.00,meteohub,2013-05-25 14:47:00,
2013-05-25 10:52:00,61.5,38.3,30.25,SE,135,2.0,8.0,42,0.00,,,0.00,meteohub,2013-05-25 14:52:00,
2013-05-25 10:57:00,61.7,38.3,30.25,East,90,2.0,6.0,42,0.00,,,0.00,meteohub,2013-05-25 14:57:00,
2013-05-25 11:02:00,62.4,39.6,30.25,North,0,3.0,5.0,43,0.00,,,0.00,meteohub,2013-05-25 15:02:00,
2013-05-25 11:07:00,62.4,39.6,30.25,SW,225,3.0,5.0,43,0.00,,,0.00,meteohub,2013-05-25 15:07:00,
2013-05-25 11:12:00,62.6,37.2,30.25,South,180,6.0,6.0,39,0.00,,,0.00,meteohub,2013-05-25 15:12:00,
2013-05-25 11:17:00,62.4,35.8,30.25,South,180,2.0,7.0,37,0.00,,,0.00,meteohub,2013-05-25 15:17:00,
2013-05-25 11:22:00,62.6,38.5,30.25,West,270,2.0,7.0,41,0.00,,,0.00,meteohub,2013-05-25 15:22:00,
2013-05-25 11:27:00,62.8,39.4,30.25,North,0,2.0,7.0,42,0.00,,,0.00,meteohub,2013-05-25 15:27:00,
2013-05-25 11:32:00,63.3,39.9,30.25,West,270,4.0,6.0,42,0.00,,,0.00,meteohub,2013-05-25 15:32:00,
2013-05-25 11:37:00,63.9,37.0,30.25,South,180,2.0,8.0,37,0.00,,,0.00,meteohub,2013-05-25 15:37:00,
2013-05-25 11:42:00,64.0,35.1,30.25,SE,135,6.0,8.0,34,0.00,,,0.00,meteohub,2013-05-25 15:42:00,
2013-05-25 11:47:00,64.4,37.6,30.25,East,90,4.0,7.0,37,0.00,,,0.00,meteohub,2013-05-25 15:47:00,
2013-05-25 11:52:00,64.0,35.1,30.25,North,0,7.0,8.0,34,0.00,,,0.00,meteohub,2013-05-25 15:52:00,
2013-05-25 11:57:00,64.4,34.0,30.24,North,0,4.0,8.0,32,0.00,,,0.00,meteohub,2013-05-25 15:57:00,
2013-05-25 12:02:00,64.9,35.1,30.24,SW,225,4.0,8.0,33,0.00,,,0.00,meteohub,2013-05-25 16:02:00,
2013-05-25 12:07:00,65.5,36.3,30.23,SW,225,6.0,8.0,34,0.00,,,0.00,meteohub,2013-05-25 16:07:00,
2013-05-25 12:12:00,65.8,34.3,30.24,NE,45,7.0,7.0,31,0.00,,,0.00,meteohub,2013-05-25 16:12:00,
2013-05-25 12:17:00,66.0,33.6,30.24,SE,135,8.0,8.0,30,0.00,,,0.00,meteohub,2013-05-25 16:17:00,
2013-05-25 12:22:00,66.4,34.9,30.24,NW,315,4.0,8.0,31,0.00,,,0.00,meteohub,2013-05-25 16:22:00,
2013-05-25 12:27:00,66.7,36.7,30.23,SW,225,3.0,8.0,33,0.00,,,0.00,meteohub,2013-05-25 16:27:00,
2013-05-25 12:32:00,66.6,32.4,30.23,NE,45,4.0,8.0,28,0.00,,,0.00,meteohub,2013-05-25 16:32:00,
2013-05-25 12:37:00,66.7,31.6,30.23,SW,225,4.0,8.0,27,0.00,,,0.00,meteohub,2013-05-25 16:37:00,
2013-05-25 12:42:00,67.1,34.7,30.23,North,0,5.0,8.0,30,0.00,,,0.00,meteohub,2013-05-25 16:42:00,
2013-05-25 12:47:00,67.3,31.3,30.23,NE,45,11.0,11.0,26,0.00,,,0.00,meteohub,2013-05-25 16:47:00,
2013-05-25 12:52:00,67.5,33.3,30.22,NW,315,4.0,13.0,28,0.00,,,0.00,meteohub,2013-05-25 16:52:00,
2013-05-25 12:57:00,67.8,35.2,30.22,West,270,3.0,13.0,30,0.00,,,0.00,meteohub,2013-05-25 16:57:00,
2013-05-25 13:02:00,68.4,32.2,30.22,SW,225,4.0,13.0,26,0.00,,,0.00,meteohub,2013-05-25 17:02:00,
2013-05-25 13:07:00,68.4,29.1,30.22,North,0,6.0,13.0,23,0.00,,,0.00,meteohub,2013-05-25 17:07:00,
2013-05-25 13:12:00,68.4,35.8,30.21,SE,135,2.0,13.0,30,0.00,,,0.00,meteohub,2013-05-25 17:12:00,
2013-05-25 13:17:00,68.9,28.4,30.20,SW,225,7.0,7.0,22,0.00,,,0.00,meteohub,2013-05-25 17:17:00,
2013-05-25 13:22:00,69.1,31.8,30.20,South,180,8.0,8.0,25,0.00,,,0.00,meteohub,2013-05-25 17:22:00,
2013-05-25 13:27:00,69.6,33.3,30.20,South,180,2.0,9.0,26,0.00,,,0.00,meteohub,2013-05-25 17:27:00,
2013-05-25 13:32:00,69.8,30.4,30.19,SE,135,4.0,9.0,23,0.00,,,0.00,meteohub,2013-05-25 17:32:00,
2013-05-25 13:37:00,70.3,37.4,30.19,NE,45,5.0,9.0,30,0.00,,,0.00,meteohub,2013-05-25 17:37:00,
2013-05-25 13:42:00,70.3,30.7,30.19,East,90,8.0,8.0,23,0.00,,,0.00,meteohub,2013-05-25 17:42:00,
2013-05-25 13:47:00,70.2,32.7,30.19,SW,225,2.0,8.0,25,0.00,,,0.00,meteohub,2013-05-25 17:47:00,
2013-05-25 13:52:00,70.3,32.9,30.19,North,0,4.0,8.0,25,0.00,,,0.00,meteohub,2013-05-25 17:52:00,
2013-05-25 13:57:00,70.3,31.8,30.19,SW,225,4.0,8.0,24,0.00,,,0.00,meteohub,2013-05-25 17:57:00,
2013-05-25 14:02:00,70.7,32.2,30.19,NW,315,3.0,8.0,24,0.00,,,0.00,meteohub,2013-05-25 18:02:00,
2013-05-25 14:07:00,70.9,32.4,30.19,NE,45,6.0,6.0,24,0.00,,,0.00,meteohub,2013-05-25 18:07:00,
2013-05-25 14:12:00,71.1,31.5,30.19,SE,135,5.0,8.0,23,0.00,,,0.00,meteohub,2013-05-25 18:12:00,
2013-05-25 14:17:00,70.9,32.4,30.18,North,0,4.0,8.0,24,0.00,,,0.00,meteohub,2013-05-25 18:17:00,
2013-05-25 14:22:00,71.2,31.5,30.17,East,90,6.0,8.0,23,0.00,,,0.00,meteohub,2013-05-25 18:22:00,
2013-05-25 14:27:00,71.1,25.3,30.17,SE,135,7.0,8.0,18,0.00,,,0.00,meteohub,2013-05-25 18:27:00,
2013-05-25 14:32:00,71.1,26.8,30.17,North,0,4.0,9.0,19,0.00,,,0.00,meteohub,2013-05-25 18:32:00,
2013-05-25 14:37:00,71.6,31.8,30.17,NE,45,4.0,15.0,23,0.00,,,0.00,meteohub,2013-05-25 18:37:00,
2013-05-25 14:42:00,72.0,27.5,30.17,East,90,8.0,15.0,19,0.00,,,0.00,meteohub,2013-05-25 18:42:00,
2013-05-25 14:47:00,72.0,26.1,30.17,North,0,5.0,15.0,18,0.00,,,0.00,meteohub,2013-05-25 18:47:00,
2013-05-25 14:52:00,72.5,26.6,30.16,SW,225,6.0,9.0,18,0.00,,,0.00,meteohub,2013-05-25 18:52:00,
2013-05-25 14:57:00,72.7,25.3,30.15,South,180,4.0,9.0,17,0.01,,,0.01,meteohub,2013-05-25 18:57:00,
2013-05-25 15:02:00,73.2,27.1,30.16,North,0,7.0,9.0,18,0.01,,,0.01,meteohub,2013-05-25 19:02:00,
2013-05-25 15:07:00,73.2,22.8,30.15,NE,45,4.0,8.0,15,0.01,,,0.01,meteohub,2013-05-25 19:07:00,
2013-05-25 15:12:00,73.2,27.1,30.15,South,180,4.0,9.0,18,0.01,,,0.01,meteohub,2013-05-25 19:12:00,
2013-05-25 15:17:00,73.4,24.4,30.15,SW,225,4.0,9.0,16,0.01,,,0.01,meteohub,2013-05-25 19:17:00,
2013-05-25 15:22:00,73.4,25.9,30.15,NW,315,5.0,9.0,17,0.01,,,0.01,meteohub,2013-05-25 19:22:00,
2013-05-25 15:27:00,73.4,25.9,30.16,West,270,9.0,9.0,17,0.01,,,0.01,meteohub,2013-05-25 19:27:00,
2013-05-25 15:32:00,73.4,29.8,30.16,SW,225,6.0,9.0,20,0.01,,,0.01,meteohub,2013-05-25 19:32:00,
2013-05-25 15:37:00,73.6,26.1,30.15,NE,45,4.0,9.0,17,0.01,,,0.01,meteohub,2013-05-25 19:37:00,
2013-05-25 15:42:00,73.2,33.3,30.15,SE,135,4.0,9.0,23,0.01,,,0.01,meteohub,2013-05-25 19:42:00,
2013-05-25 15:47:00,73.6,30.0,30.16,NW,315,4.0,8.0,20,0.01,,,0.01,meteohub,2013-05-25 19:47:00,
2013-05-25 15:52:00,73.6,32.4,30.16,West,270,3.0,8.0,22,0.00,,,0.01,meteohub,2013-05-25 19:52:00,
2013-05-25 15:57:00,73.9,36.9,30.15,NW,315,5.0,8.0,26,0.00,,,0.01,meteohub,2013-05-25 19:57:00,
2013-05-25 16:02:00,74.3,28.0,30.15,NE,45,8.0,8.0,18,0.00,,,0.01,meteohub,2013-05-25 20:02:00,
2013-05-25 16:07:00,74.3,29.3,30.14,South,180,2.0,8.0,19,0.00,,,0.01,meteohub,2013-05-25 20:07:00,
2013-05-25 16:12:00,74.8,34.5,30.15,NE,45,4.0,8.0,23,0.00,,,0.01,meteohub,2013-05-25 20:12:00,
2013-05-25 16:17:00,75.6,32.9,30.14,West,270,8.0,8.0,21,0.00,,,0.01,meteohub,2013-05-25 20:17:00,
2013-05-25 16:22:00,75.0,27.3,30.15,North,0,4.0,8.0,17,0.00,,,0.01,meteohub,2013-05-25 20:22:00,
2013-05-25 16:27:00,74.5,26.8,30.14,SW,225,2.0,9.0,17,0.00,,,0.01,meteohub,2013-05-25 20:27:00,
2013-05-25 16:32:00,74.5,30.7,30.14,West,270,4.0,9.0,20,0.00,,,0.01,meteohub,2013-05-25 20:32:00,
2013-05-25 16:37:00,74.8,32.4,30.14,North,0,4.0,9.0,21,0.00,,,0.01,meteohub,2013-05-25 20:37:00,
2013-05-25 16:42:00,74.7,33.3,30.14,North,0,2.0,7.0,22,0.00,,,0.01,meteohub,2013-05-25 20:42:00,
2013-05-25 16:47:00,74.8,31.1,30.14,West,270,3.0,7.0,20,0.00,,,0.01,meteohub,2013-05-25 20:47:00,
2013-05-25 16:52:00,75.4,32.7,30.14,South,180,3.0,7.0,21,0.00,,,0.01,meteohub,2013-05-25 20:52:00,
2013-05-25 16:57:00,75.4,27.5,30.14,NW,315,4.0,5.0,17,0.00,,,0.01,meteohub,2013-05-25 20:57:00,
2013-05-25 17:02:00,75.2,25.9,30.14,NW,315,8.0,8.0,16,0.00,,,0.01,meteohub,2013-05-25 21:02:00,
2013-05-25 17:07:00,75.4,26.1,30.14,North,0,4.0,8.0,16,0.00,,,0.01,meteohub,2013-05-25 21:07:00,
2013-05-25 17:12:00,75.6,24.6,30.14,West,270,3.0,8.0,15,0.00,,,0.01,meteohub,2013-05-25 21:12:00,
2013-05-25 17:17:00,75.4,28.9,30.14,NNW,338,2.0,8.0,18,0.00,,,0.01,meteohub,2013-05-25 21:17:00,
2013-05-25 17:22:00,75.2,22.6,30.14,North,0,4.0,7.0,14,0.00,,,0.01,meteohub,2013-05-25 21:22:00,
2013-05-25 17:27:00,74.5,23.7,30.13,North,0,4.0,5.0,15,0.00,,,0.01,meteohub,2013-05-25 21:27:00,
2013-05-25 17:32:00,73.9,21.7,30.13,SW,225,8.0,8.0,14,0.00,,,0.01,meteohub,2013-05-25 21:32:00,
2013-05-25 17:37:00,74.5,23.7,30.13,SE,135,4.0,8.0,15,0.00,,,0.01,meteohub,2013-05-25 21:37:00,
2013-05-25 17:42:00,74.5,25.3,30.13,NW,315,4.0,8.0,16,0.00,,,0.01,meteohub,2013-05-25 21:42:00,
2013-05-25 17:47:00,74.5,23.7,30.13,South,180,4.0,8.0,15,0.00,,,0.01,meteohub,2013-05-25 21:47:00,
2013-05-25 17:52:00,74.5,25.3,30.13,NW,315,2.0,6.0,16,0.00,,,0.01,meteohub,2013-05-25 21:52:00,
2013-05-25 17:57:00,74.1,26.6,30.13,North,0,4.0,7.0,17,0.00,,,0.01,meteohub,2013-05-25 21:57:00,
2013-05-25 18:02:00,74.1,27.9,30.13,SW,225,2.0,7.0,18,0.00,,,0.01,meteohub,2013-05-25 22:02:00,
2013-05-25 18:07:00,74.3,30.6,30.13,SE,135,2.0,7.0,20,0.00,,,0.01,meteohub,2013-05-25 22:07:00,
2013-05-25 18:12:00,73.9,27.7,30.12,NE,45,2.0,5.0,18,0.00,,,0.01,meteohub,2013-05-25 22:12:00,
2013-05-25 18:17:00,73.4,27.3,30.12,SW,225,2.0,4.0,18,0.00,,,0.01,meteohub,2013-05-25 22:17:00,
2013-05-25 18:22:00,73.0,28.4,30.12,SW,225,2.0,4.0,19,0.00,,,0.01,meteohub,2013-05-25 22:22:00,
2013-05-25 18:27:00,72.7,28.0,30.12,NE,45,2.0,3.0,19,0.00,,,0.01,meteohub,2013-05-25 22:27:00,
2013-05-25 18:32:00,72.0,32.2,30.12,SW,225,1.0,3.0,23,0.00,,,0.01,meteohub,2013-05-25 22:32:00,
2013-05-25 18:37:00,71.6,34.9,30.12,SW,225,0.0,3.0,26,0.00,,,0.01,meteohub,2013-05-25 22:37:00,
2013-05-25 18:42:00,70.5,36.7,30.13,NW,315,2.0,3.0,29,0.00,,,0.01,meteohub,2013-05-25 22:42:00,
2013-05-25 18:47:00,69.8,41.7,30.13,NW,315,0.0,2.0,36,0.00,,,0.01,meteohub,2013-05-25 22:47:00,
2013-05-25 18:52:00,68.9,43.0,30.14,NW,315,1.0,2.0,39,0.00,,,0.01,meteohub,2013-05-25 22:52:00,
2013-05-25 18:57:00,67.8,42.6,30.14,NW,315,0.0,2.0,40,0.00,,,0.01,meteohub,2013-05-25 22:57:00,
2013-05-25 19:02:00,67.1,44.4,30.14,NW,315,0.0,1.0,44,0.00,,,0.01,meteohub,2013-05-25 23:02:00,
2013-05-25 19:07:00,66.4,46.6,30.14,NW,315,0.0,1.0,49,0.00,,,0.01,meteohub,2013-05-25 23:07:00,
2013-05-25 19:12:00,65.5,47.8,30.14,NW,315,0.0,1.0,53,0.00,,,0.01,meteohub,2013-05-25 23:12:00,
2013-05-25 19:17:00,64.6,48.0,30.14,NW,315,0.0,1.0,55,0.00,,,0.01,meteohub,2013-05-25 23:17:00,
2013-05-25 19:22:00,63.9,47.8,30.14,NW,315,0.0,0.0,56,0.00,,,0.01,meteohub,2013-05-25 23:22:00,
2013-05-25 19:27:00,63.3,47.8,30.14,NW,315,0.0,0.0,57,0.00,,,0.01,meteohub,2013-05-25 23:27:00,
2013-05-25 19:32:00,62.8,48.2,30.14,NW,315,0.0,0.0,59,0.00,,,0.01,meteohub,2013-05-25 23:32:00,
2013-05-25 19:37:00,62.2,49.5,30.14,NW,315,0.0,0.0,63,0.00,,,0.01,meteohub,2013-05-25 23:37:00,
2013-05-25 19:42:00,61.5,49.3,30.14,NW,315,0.0,0.0,64,0.00,,,0.01,meteohub,2013-05-25 23:42:00,
2013-05-25 19:47:00,61.2,48.9,30.14,NW,315,0.0,0.0,64,0.00,,,0.01,meteohub,2013-05-25 23:47:00,
2013-05-25 19:52:00,60.6,48.7,30.14,NW,315,0.0,0.0,65,0.00,,,0.01,meteohub,2013-05-25 23:52:00,
2013-05-25 19:57:00,60.3,48.4,30.14,NW,315,0.0,0.0,65,0.00,,,0.01,meteohub,2013-05-25 23:57:00,
2013-05-25 20:02:00,59.7,48.4,30.14,NW,315,0.0,0.0,66,0.00,,,0.01,meteohub,2013-05-26 00:02:00,
2013-05-25 20:07:00,59.2,47.8,30.14,NW,315,0.0,0.0,66,0.00,,,0.01,meteohub,2013-05-26 00:07:00,
2013-05-25 20:12:00,58.5,48.0,30.14,NW,315,0.0,0.0,68,0.00,,,0.01,meteohub,2013-05-26 00:12:00,
2013-05-25 20:17:00,58.1,47.7,30.14,NW,315,0.0,0.0,68,0.00,,,0.01,meteohub,2013-05-26 00:17:00,
2013-05-25 20:22:00,57.6,47.1,30.15,NW,315,0.0,0.0,68,0.00,,,0.01,meteohub,2013-05-26 00:22:00,
2013-05-25 20:27:00,57.2,47.1,30.14,NW,315,2.0,0.0,69,0.00,,,0.01,meteohub,2013-05-26 00:27:00,
2013-05-25 20:32:00,57.0,47.3,30.14,NW,315,0.0,2.0,70,0.00,,,0.01,meteohub,2013-05-26 00:32:00,
2013-05-25 20:37:00,56.8,47.8,30.14,NW,315,1.0,2.0,72,0.00,,,0.01,meteohub,2013-05-26 00:37:00,
2013-05-25 20:42:00,56.8,48.9,30.14,NW,315,2.0,2.0,75,0.00,,,0.01,meteohub,2013-05-26 00:42:00,
2013-05-25 20:47:00,56.5,49.3,30.14,NW,315,2.0,2.0,77,0.00,,,0.01,meteohub,2013-05-26 00:47:00,
2013-05-25 20:52:00,56.1,48.9,30.15,NW,315,1.0,2.0,77,0.00,,,0.01,meteohub,2013-05-26 00:52:00,
2013-05-25 20:57:00,55.8,48.7,30.15,NW,315,2.0,2.0,77,0.00,,,0.01,meteohub,2013-05-26 00:57:00,
2013-05-25 21:02:00,55.2,48.2,30.15,NW,315,1.0,2.0,77,0.00,,,0.01,meteohub,2013-05-26 01:02:00,
2013-05-25 21:07:00,54.9,47.8,30.15,NW,315,1.0,2.0,77,0.00,,,0.01,meteohub,2013-05-26 01:07:00,
2013-05-25 21:12:00,54.3,47.3,30.15,NW,315,0.0,2.0,77,0.00,,,0.01,meteohub,2013-05-26 01:12:00,
2013-05-25 21:17:00,54.1,47.5,30.15,NW,315,0.0,2.0,78,0.00,,,0.01,meteohub,2013-05-26 01:17:00,
2013-05-25 21:22:00,53.8,47.1,30.16,NW,315,1.0,1.0,78,0.00,,,0.01,meteohub,2013-05-26 01:22:00,
2013-05-25 21:27:00,53.6,47.3,30.16,NW,315,0.0,1.0,79,0.00,,,0.01,meteohub,2013-05-26 01:27:00,
2013-05-25 21:32:00,53.2,46.9,30.16,NW,315,0.0,1.0,79,0.00,,,0.01,meteohub,2013-05-26 01:32:00,
2013-05-25 21:37:00,53.1,47.1,30.16,NW,315,0.0,1.0,80,0.00,,,0.01,meteohub,2013-05-26 01:37:00,
2013-05-25 21:42:00,52.7,46.8,30.16,NW,315,0.0,0.0,80,0.00,,,0.01,meteohub,2013-05-26 01:42:00,
2013-05-25 21:47:00,52.3,46.8,30.17,NW,315,0.0,0.0,81,0.00,,,0.01,meteohub,2013-05-26 01:47:00,
2013-05-25 21:52:00,52.2,46.6,30.17,NW,315,0.0,0.0,81,0.00,,,0.01,meteohub,2013-05-26 01:52:00,
2013-05-25 21:57:00,51.8,46.4,30.17,NW,315,0.0,0.0,82,0.00,,,0.01,meteohub,2013-05-26 01:57:00,
2013-05-25 22:02:00,51.6,46.2,30.17,NW,315,0.0,0.0,82,0.00,,,0.01,meteohub,2013-05-26 02:02:00,
2013-05-25 22:07:00,51.1,46.0,30.18,NW,315,0.0,0.0,83,0.00,,,0.01,meteohub,2013-05-26 02:07:00,
2013-05-25 22:12:00,50.7,45.7,30.17,NW,315,0.0,0.0,83,0.00,,,0.01,meteohub,2013-05-26 02:12:00,
2013-05-25 22:17:00,50.5,45.9,30.18,NW,315,0.0,0.0,84,0.00,,,0.01,meteohub,2013-05-26 02:17:00,
2013-05-25 22:22:00,50.4,45.7,30.18,NW,315,0.0,0.0,84,0.00,,,0.01,meteohub,2013-05-26 02:22:00,
2013-05-25 22:27:00,50.0,45.3,30.18,NW,315,0.0,0.0,84,0.00,,,0.01,meteohub,2013-05-26 02:27:00,
2013-05-25 22:32:00,50.0,45.7,30.19,NW,315,0.0,0.0,85,0.00,,,0.01,meteohub,2013-05-26 02:32:00,
2013-05-25 22:37:00,49.8,45.5,30.18,NW,315,0.0,0.0,85,0.00,,,0.01,meteohub,2013-05-26 02:37:00,
2013-05-25 22:42:00,49.6,45.7,30.19,NW,315,0.0,0.0,86,0.00,,,0.01,meteohub,2013-05-26 02:42:00,
2013-05-25 22:47:00,49.6,45.7,30.19,NW,315,0.0,0.0,86,0.00,,,0.01,meteohub,2013-05-26 02:47:00,
2013-05-25 22:52:00,49.1,45.1,30.19,NW,315,0.0,0.0,86,0.00,,,0.01,meteohub,2013-05-26 02:52:00,
2013-05-25 22:57:00,48.9,45.1,30.19,NW,315,0.0,0.0,87,0.00,,,0.01,meteohub,2013-05-26 02:57:00,
2013-05-25 23:02:00,48.6,44.8,30.19,NW,315,0.0,0.0,87,0.00,,,0.01,meteohub,2013-05-26 03:02:00,
2013-05-25 23:07:00,48.7,45.0,30.19,NW,315,0.0,0.0,87,0.00,,,0.01,meteohub,2013-05-26 03:07:00,
2013-05-25 23:12:00,48.6,44.8,30.19,NW,315,0.0,0.0,87,0.00,,,0.01,meteohub,2013-05-26 03:12:00,
2013-05-25 23:17:00,48.4,45.0,30.19,NW,315,0.0,0.0,88,0.00,,,0.01,meteohub,2013-05-26 03:17:00,
2013-05-25 23:22:00,48.2,44.8,30.19,NW,315,0.0,2.0,88,0.00,,,0.01,meteohub,2013-05-26 03:22:00,
2013-05-25 23:27:00,48.0,44.6,30.19,NW,315,1.0,2.0,88,0.00,,,0.01,meteohub,2013-05-26 03:27:00,
2013-05-25 23:32:00,47.8,44.4,30.19,NW,315,1.0,2.0,88,0.00,,,0.01,meteohub,2013-05-26 03:32:00,
2013-05-25 23:37:00,47.8,44.8,30.19,SW,225,1.0,2.0,89,0.00,,,0.01,meteohub,2013-05-26 03:37:00,
2013-05-25 23:42:00,47.8,45.0,30.19,SW,225,2.0,2.0,90,0.00,,,0.01,meteohub,2013-05-26 03:42:00,
2013-05-25 23:47:00,47.8,45.0,30.19,SW,225,0.0,2.0,90,0.00,,,0.01,meteohub,2013-05-26 03:47:00,
2013-05-25 23:52:00,47.5,44.8,30.19,SW,225,0.0,2.0,90,0.00,,,0.01,meteohub,2013-05-26 03:52:00,
2013-05-25 23:57:00,47.3,44.6,30.19,SW,225,0.0,2.0,90,0.00,,,0.01,meteohub,2013-05-26 03:57:00,